Аэропорт: Жуляны. Киев

ICAO: UKKK

METAR:
2018/05/20 23:00
UKKK 202300Z 36003MPS CAVOK 11/05 Q1021 R08/CLRD70 NOSIG
METAR:
2018/05/20 18:12
TAF TAF UKKK 201703Z 2018/2118 35005G10MPS 9999 SCT030 
      TEMPO 2018/2021 01008G13MPS 2000 BR BKN007 
      TEMPO 2108/2117 02007G12MPS SCT025CB